Terminal Aerodrome Forecast
Issued by NWS North Platte, NE

Home | Current Version | Previous Version | Text Only | Print | Product List | Glossary On
Versions: 1 2 3 4 5 6 7 8 9 10 11 12 13 14 15 16 17 18 19 20 21
000
FTUS43 KLBF 181700
TAFLBF
TAF
KLBF 181726Z 1818/1918 18017G26KT P6SM BKN300
     FM191100 15009KT P6SM SCT150 SCT300
     FM191500 03008KT P6SM SCT300=

USA.gov is the U.S. government's official web portal to all federal, state and local government web resources and services.